Time;durP1;ratioP1;P1;durP2;ratioP2;P2;SDS_P1;SDS_P2;PMS_P1;PMS_P2;Temp;Humidity;BMP_temperature;BMP_pressure;BME280_temperature;BME280_humidity;BME280_pressure;Samples;Min_cycle;Max_cycle;Signal;HPM_P1;HPM_P2
2022/09/24 00:05:35;;;;;;;;;;;;;;;;;;;;;
2022/09/24 00:12:07;;;;;;;38.30;22.00;;;;;;;7.23;91.82;98759.38;220361;1281;23846;-75
2022/09/24 00:18:35;;;;;;;43.10;23.60;;;;;;;7.17;91.68;98755.80;220816;1277;22754;-75
2022/09/24 00:32:32;;;;;;;;;;;;;;;;;;;;;
2022/09/24 00:39:10;;;;;;;36.10;19.10;;;;;;;7.06;92.22;98735.19;220434;1279;22548;-75
2022/09/24 00:46:06;;;;;;;;;;;;;;;;;;;;;
2022/09/24 01:00:16;;;;;;;;;;;;;;;;;;;;;
2022/09/24 01:06:27;;;;;;;39.00;20.80;;;;;;;6.55;92.11;98716.85;220352;1279;23677;-75
2022/09/24 01:20:46;;;;;;;39.00;21.00;;;;;;;6.19;92.42;98699.55;219963;1277;24267;-74
2022/09/24 01:34:14;;;;;;;35.60;20.00;;;;;;;5.94;92.96;98687.86;220215;1279;23737;-76
2022/09/24 01:47:39;;;;;;;36.40;19.90;;;;;;;5.72;93.19;98679.09;220136;1278;23242;-75
2022/09/24 01:54:37;;;;;;;30.80;18.70;;;;;;;5.61;93.53;98676.69;216445;1277;22580;-75
2022/09/24 02:01:56;;;;;;;34.60;17.90;;;;;;;5.52;93.51;98674.35;220469;1279;25390;-75
2022/09/24 02:07:22;;;;;;;;;;;;;;;;;;;;;
2022/09/24 02:14:24;;;;;;;;;;;;;;;;;;;;;
2022/09/24 02:20:23;;;;;;;35.70;18.80;;;;;;;5.31;94.12;98680.29;219235;1282;22757;-75
2022/09/24 02:27:16;;;;;;;;;;;;;;;;;;;;;
2022/09/24 02:47:35;;;;;;;;;;;;;;;;;;;;;
2022/09/24 02:54:00;;;;;;;33.20;17.50;;;;;;;5.08;94.75;98673.44;220654;1279;23842;-75
2022/09/24 03:00:42;;;;;;;30.20;17.80;;;;;;;5.11;95.11;98669.95;219641;1277;25333;-75
2022/09/24 03:07:03;;;;;;;34.90;17.50;;;;;;;5.17;95.25;98662.44;220459;1279;22556;-76
2022/09/24 03:13:42;;;;;;;29.20;15.90;;;;;;;5.24;95.45;98659.20;220822;1279;22897;-77
2022/09/24 03:20:23;;;;;;;33.60;19.10;;;;;;;5.28;95.58;98655.98;220288;1277;22581;-76
2022/09/24 03:26:55;;;;;;;;;;;;;;;;;;;;;
2022/09/24 03:33:21;;;;;;;39.20;20.50;;;;;;;5.32;95.68;98652.61;219071;1281;22558;-75
2022/09/24 03:39:46;;;;;;;34.80;19.90;;;;;;;5.34;95.55;98647.84;220008;1281;24271;-75
2022/09/24 03:46:20;;;;;;;31.90;18.90;;;;;;;5.35;95.65;98648.21;219807;1277;22561;-75
2022/09/24 04:00:05;;;;;;;25.50;15.00;;;;;;;5.36;95.85;98665.55;220252;1277;22596;-76
2022/09/24 04:06:48;;;;;;;;;;;;;;;;;;;;;
2022/09/24 04:13:30;;;;;;;;;;;;;;;;;;;;;
2022/09/24 04:27:19;;;;;;;32.20;18.80;;;;;;;5.24;95.65;98635.41;220244;1277;23711;-76
2022/09/24 04:34:18;;;;;;;41.40;24.20;;;;;;;5.15;95.47;98624.04;219412;1278;25423;-75
2022/09/24 04:40:38;;;;;;;37.50;21.60;;;;;;;5.06;95.60;98622.64;219685;1279;22788;-75
2022/09/24 04:47:32;;;;;;;29.20;17.40;;;;;;;4.99;95.64;98626.11;220731;1278;22634;-76
2022/09/24 04:54:27;;;;;;;;;;;;;;;;;;;;;
2022/09/24 05:01:22;;;;;;;;;;;;;;;;;;;;;
2022/09/24 05:14:53;;;;;;;37.40;21.70;;;;;;;5.29;96.01;98615.89;220735;1278;22589;-75
2022/09/24 05:28:13;;;;;;;;;;;;;;;;;;;;;
2022/09/24 05:35:11;;;;;;;44.60;26.20;;;;;;;5.56;96.21;98609.92;220664;1278;22548;-78
2022/09/24 05:42:03;;;;;;;33.50;19.80;;;;;;;5.71;96.29;98614.21;219853;1279;23150;-75
2022/09/24 05:48:41;;;;;;;36.90;21.90;;;;;;;5.86;96.14;98618.47;220703;1277;22504;-76
2022/09/24 05:56:09;;;;;;;37.80;22.50;;;;;;;6.04;96.45;98623.02;220475;1278;24245;-75
2022/09/24 06:02:10;;;;;;;39.40;25.20;;;;;;;6.27;96.08;98618.66;220263;1279;23803;-76
2022/09/24 06:07:40;;;;;;;32.00;19.80;;;;;;;6.47;96.19;98617.30;220693;1277;22553;-76
2022/09/24 06:13:46;;;;;;;40.10;23.40;;;;;;;6.68;96.25;98619.60;220660;1279;23215;-76
2022/09/24 06:19:51;;;;;;;28.20;18.50;;;;;;;6.92;95.97;98618.64;220593;1279;22671;-76
2022/09/24 06:25:43;;;;;;;;;;;;;;;;;;;;;
2022/09/24 06:32:04;;;;;;;35.00;21.70;;;;;;;7.30;95.65;98623.21;219689;1279;24212;-78
2022/09/24 06:38:34;;;;;;;36.00;23.20;;;;;;;7.52;95.28;98626.88;220420;1276;22636;-77
2022/09/24 06:45:09;;;;;;;28.10;18.10;;;;;;;7.81;95.19;98629.07;220448;1278;24214;-75
2022/09/24 06:58:38;;;;;;;;;;;;;;;;;;;;;
2022/09/24 07:05:30;;;;;;;32.30;22.20;;;;;;;8.92;94.87;98625.23;221817;1276;22546;-77
2022/09/24 07:12:05;;;;;;;;;;;;;;;;;;;;;
2022/09/24 07:19:12;;;;;;;;;;;;;;;;;;;;;
2022/09/24 07:25:48;;;;;;;25.50;17.70;;;;;;;9.83;93.37;98627.39;221609;1276;22482;-77
2022/09/24 07:31:59;;;;;;;32.30;20.50;;;;;;;10.07;92.86;98638.59;219759;1280;22612;-77
2022/09/24 07:38:45;;;;;;;31.90;20.30;;;;;;;10.33;92.66;98649.38;220917;1281;23541;-78
2022/09/24 07:45:05;;;;;;;;;;;;;;;;;;;;;
2022/09/24 07:51:04;;;;;;;28.30;19.30;;;;;;;11.05;92.06;98651.13;221254;1282;22561;-77
2022/09/24 07:56:16;;;;;;;23.60;16.00;;;;;;;11.35;91.48;98656.73;221172;1281;25707;-77
2022/09/24 08:01:23;;;;;;;19.50;13.40;;;;;;;11.55;90.48;98656.63;220425;1278;22531;-77
2022/09/24 08:06:47;;;;;;;27.90;17.20;;;;;;;11.79;90.26;98656.55;220307;1279;22538;-78
2022/09/24 08:12:45;;;;;;;;;;;;;;;;;;;;;
2022/09/24 08:18:59;;;;;;;22.10;14.50;;;;;;;12.52;89.42;98656.86;222005;1277;22567;-78
2022/09/24 08:24:32;;;;;;;17.40;13.10;;;;;;;12.71;88.62;98651.15;222135;1277;22747;-76
2022/09/24 08:30:07;;;;;;;22.50;15.40;;;;;;;12.87;88.32;98655.23;222184;1278;22549;-77
2022/09/24 08:35:56;;;;;;;21.60;13.10;;;;;;;13.00;87.65;98653.46;220201;1277;22559;-74
2022/09/24 08:42:53;;;;;;;;;;;;;;;;;;;;;
2022/09/24 08:48:50;;;;;;;16.10;12.10;;;;;;;13.33;87.08;98653.83;221939;1276;22553;-77
2022/09/24 08:55:05;;;;;;;16.50;11.20;;;;;;;13.56;86.95;98650.18;221975;1277;25265;-75
2022/09/24 09:00:59;;;;;;;18.60;12.80;;;;;;;13.85;86.29;98648.25;221987;1276;22577;-76
2022/09/24 09:07:12;;;;;;;;;;;;;;;;;;;;;
2022/09/24 09:13:41;;;;;;;;;;;;;;;;;;;;;
2022/09/24 09:20:46;;;;;;;;;;;;;;;;;;;;;
2022/09/24 09:27:11;;;;;;;11.50;6.90;;;;;;;14.96;82.72;98607.98;221571;1278;22667;-77
2022/09/24 09:33:41;;;;;;;;;;;;;;;;;;;;;
2022/09/24 09:46:56;;;;;;;;;;;;;;;;;;;;;
2022/09/24 09:53:34;;;;;;;10.20;5.70;;;;;;;15.34;78.09;98603.95;221779;1276;22655;-76
2022/09/24 09:59:53;;;;;;;9.10;5.80;;;;;;;15.36;77.97;98610.77;221529;1278;23979;-76
2022/09/24 10:06:53;;;;;;;7.70;4.90;;;;;;;15.48;77.26;98602.98;221581;1277;22622;-77
2022/09/24 10:13:44;;;;;;;;;;;;;;;;;;;;;
2022/09/24 10:19:31;;;;;;;5.90;4.80;;;;;;;16.08;76.12;98608.69;221071;1278;23169;-76
2022/09/24 10:24:58;;;;;;;5.00;4.00;;;;;;;16.44;75.64;98607.39;220534;1276;22599;-75
2022/09/24 10:30:34;;;;;;;6.10;4.00;;;;;;;16.76;74.61;98603.64;220618;1276;25413;-76
2022/09/24 10:35:51;;;;;;;5.10;3.50;;;;;;;17.14;73.39;98599.86;221510;1278;23053;-77
2022/09/24 10:42:24;;;;;;;;;;;;;;;;;;;;;
2022/09/24 10:47:58;;;;;;;4.40;3.30;;;;;;;17.29;70.41;98583.86;219838;1281;22573;-75
2022/09/24 10:53:39;;;;;;;;;;;;;;;;;;;;;
2022/09/24 11:00:38;;;;;;;6.90;4.70;;;;;;;17.44;68.84;98579.39;219961;1281;25516;-74
2022/09/24 11:06:50;;;;;;;5.80;4.80;;;;;;;17.71;68.90;98570.08;220423;1279;25487;-75
2022/09/24 11:12:44;;;;;;;6.50;4.40;;;;;;;18.03;67.93;98565.92;220700;1277;22606;-75
2022/09/24 11:19:19;;;;;;;;;;;;;;;;;;;;;
2022/09/24 11:26:02;;;;;;;;;;;;;;;;;;;;;
2022/09/24 11:32:33;;;;;;;;;;;;;;;;;;;;;
2022/09/24 11:39:00;;;;;;;4.40;3.50;;;;;;;18.94;63.17;98577.80;220984;1277;22545;-74
2022/09/24 11:45:17;;;;;;;3.50;2.40;;;;;;;19.06;62.07;98575.44;219752;1277;25263;-76
2022/09/24 11:51:37;;;;;;;2.70;2.00;;;;;;;19.07;61.40;98566.10;221105;1277;25275;-75
2022/09/24 11:57:52;;;;;;;6.20;2.40;;;;;;;18.90;60.12;98570.78;220932;1278;24332;-74
2022/09/24 12:04:12;;;;;;;3.20;2.30;;;;;;;18.82;59.74;98565.67;220071;1277;24457;-76
2022/09/24 12:10:01;;;;;;;3.20;2.10;;;;;;;18.90;59.66;98563.96;220033;1277;25346;-75
2022/09/24 12:15:41;;;;;;;3.80;2.70;;;;;;;18.67;58.59;98551.56;220011;1281;22581;-75
2022/09/24 12:21:31;;;;;;;6.50;2.70;;;;;;;18.42;59.37;98545.09;219325;1281;23898;-74
2022/09/24 12:27:31;;;;;;;;;;;;;;;;;;;;;
2022/09/24 12:33:21;;;;;;;;;;;;;;;18.09;60.44;98541.73;219355;1281;24386;-75
2022/09/24 12:39:51;;;;;;;;;;;;;;;;;;;;;
2022/09/24 12:45:40;;;;;;;9.60;6.70;;;;;;;18.67;60.36;98536.92;220711;1278;22716;-74
2022/09/24 12:51:04;;;;;;;8.80;4.00;;;;;;;19.09;60.26;98528.77;220715;1277;22679;-74
2022/09/24 12:56:39;;;;;;;4.20;3.20;;;;;;;19.43;60.25;98518.84;220190;1277;24225;-76
2022/09/24 13:02:12;;;;;;;4.00;3.00;;;;;;;19.56;56.03;98513.01;221186;1275;25523;-75
2022/09/24 13:08:22;;;;;;;3.20;2.90;;;;;;;19.34;54.05;98506.46;220919;1278;22587;-75
2022/09/24 13:14:44;;;;;;;;;;;;;;;;;;;;;
2022/09/24 13:21:34;;;;;;;;;;;;;;;;;;;;;
2022/09/24 13:28:00;;;;;;;4.20;2.80;;;;;;;19.40;56.34;98490.16;219419;1281;24276;-74
2022/09/24 13:34:23;;;;;;;;;;;;;;;;;;;;;
2022/09/24 13:40:36;;;;;;;3.60;3.10;;;;;;;19.49;57.34;98487.46;219279;1281;22882;-75
2022/09/24 13:46:32;;;;;;;;;;;;;;;;;;;;;
2022/09/24 13:53:09;;;;;;;;;;;;;;;;;;;;;
2022/09/24 13:59:03;;;;;;;3.90;3.20;;;;;;;18.73;54.70;98469.95;220123;1277;22615;-74
2022/09/24 14:04:45;;;;;;;5.60;3.50;;;;;;;18.31;55.41;98464.78;220240;1276;22565;-75
2022/09/24 14:10:41;;;;;;;13.10;7.30;;;;;;;18.24;57.42;98462.73;220019;1276;24293;-73
2022/09/24 14:16:36;;;;;;;7.00;5.80;;;;;;;18.33;57.32;98457.63;219930;1276;25342;-74
2022/09/24 14:22:51;;;;;;;;;;;;;;;;;;;;;
2022/09/24 14:28:28;;;;;;;24.80;19.40;;;;;;;18.40;57.50;98462.21;220293;1276;25331;-74
2022/09/24 14:34:42;;;;;;;13.60;10.00;;;;;;;18.31;57.67;98454.86;220097;1277;22577;-75
2022/09/24 14:40:17;;;;;;;23.40;15.20;;;;;;;18.22;58.53;98459.73;220188;1276;24271;-74
2022/09/24 14:46:26;;;;;;;6.70;4.80;;;;;;;18.06;57.94;98453.11;221156;1276;26562;-74
2022/09/24 14:52:03;;;;;;;4.10;3.20;;;;;;;17.76;57.41;98450.02;220159;1276;22649;-76
2022/09/24 14:58:14;;;;;;;;;;;;;;;;;;;;;
2022/09/24 15:04:39;;;;;;;5.00;3.00;;;;;;;17.05;59.01;98450.27;220216;1278;25371;-74
2022/09/24 15:10:23;;;;;;;5.50;3.40;;;;;;;16.82;59.82;98447.36;219869;1277;22535;-74
2022/09/24 15:16:32;;;;;;;7.70;3.80;;;;;;;16.59;60.57;98450.53;219991;1277;26485;-74
2022/09/24 15:22:27;;;;;;;;;;;;;;;;;;;;;
2022/09/24 15:28:21;;;;;;;5.10;3.80;;;;;;;16.29;62.87;98450.58;219690;1278;22541;-73
2022/09/24 15:34:28;;;;;;;5.40;3.80;;;;;;;16.09;63.49;98449.88;219672;1278;22543;-74
2022/09/24 15:40:29;;;;;;;;;;;;;;;;;;;;;
2022/09/24 15:46:33;;;;;;;8.80;4.20;;;;;;;15.71;65.21;98448.20;220054;1277;25374;-74
2022/09/24 15:52:46;;;;;;;;;;;;;;;;;;;;;
2022/09/24 15:59:01;;;;;;;4.70;3.90;;;;;;;15.33;66.57;98443.30;220098;1277;22541;-74
2022/09/24 16:04:52;;;;;;;7.10;4.60;;;;;;;15.10;67.32;98445.00;221030;1277;26188;-74
2022/09/24 16:10:32;;;;;;;6.40;4.70;;;;;;;14.90;68.06;98441.91;221205;1276;22652;-74
2022/09/24 16:16:15;;;;;;;10.80;4.60;;;;;;;14.67;68.88;98447.15;219256;1281;25305;-73
2022/09/24 16:22:13;;;;;;;8.60;5.00;;;;;;;14.45;69.70;98444.45;219428;1281;22569;-74
2022/09/24 16:28:12;;;;;;;7.20;5.10;;;;;;;14.24;70.24;98446.35;219379;1281;23030;-74
2022/09/24 16:34:55;;;;;;;6.90;5.20;;;;;;;14.01;70.71;98446.61;218861;1284;25262;-74
2022/09/24 16:41:12;;;;;;;;;;;;;;;;;;;;;
2022/09/24 16:47:27;;;;;;;7.50;5.30;;;;;;;13.56;71.60;98458.60;219417;1281;24286;-74
2022/09/24 16:53:33;;;;;;;;;;;;;;;;;;;;;
2022/09/24 17:00:07;;;;;;;10.90;7.80;;;;;;;13.25;72.92;98458.65;219398;1281;22588;-74
2022/09/24 17:06:29;;;;;;;;;;;;;;;;;;;;;
2022/09/24 17:13:02;;;;;;;20.20;11.90;;;;;;;12.94;74.48;98463.16;218621;1284;25376;-74
2022/09/24 17:19:15;;;;;;;15.50;10.60;;;;;;;12.83;75.10;98458.63;218929;1282;25273;-74
2022/09/24 17:25:24;;;;;;;38.30;20.70;;;;;;;12.69;75.75;98451.98;219318;1282;24283;-75
2022/09/24 17:31:20;;;;;;;;;;;;;;;;;;;;;
2022/09/24 17:37:04;;;;;;;28.50;16.20;;;;;;;12.52;76.45;98451.15;219590;1279;25247;-73
2022/09/24 17:43:10;;;;;;;31.20;16.20;;;;;;;12.44;77.03;98451.69;219656;1279;24066;-75
2022/09/24 17:49:05;;;;;;;24.20;14.40;;;;;;;12.37;77.24;98449.66;219558;1279;23329;-73
2022/09/24 17:54:46;;;;;;;25.50;14.20;;;;;;;12.28;77.48;98454.59;218431;1284;22732;-73
2022/09/24 17:59:56;;;;;;;28.10;16.40;;;;;;;12.19;77.94;98456.44;218373;1284;25424;-73
2022/09/24 18:06:05;;;;;;;37.90;19.00;;;;;;;12.11;78.22;98459.55;218534;1284;22607;-74
2022/09/24 18:12:33;;;;;;;40.20;23.80;;;;;;;11.95;78.67;98454.97;219488;1279;22717;-74
2022/09/24 18:18:30;;;;;;;;;;;;;;;;;;;;;
2022/09/24 18:24:24;;;;;;;48.00;27.50;;;;;;;11.60;79.56;98454.94;219499;1281;24287;-75
2022/09/24 18:30:50;;;;;;;39.50;22.20;;;;;;;11.43;79.84;98460.03;219685;1281;25524;-73
2022/09/24 18:36:16;;;;;;;31.80;19.00;;;;;;;11.28;80.14;98464.95;220235;1280;22728;-72
2022/09/24 18:41:49;;;;;;;33.50;19.30;;;;;;;11.17;80.52;98471.77;219234;1281;22682;-73
2022/09/24 18:47:04;;;;;;;32.20;20.20;;;;;;;11.05;80.75;98475.23;219212;1281;22576;-73
2022/09/24 18:53:04;;;;;;;36.90;19.50;;;;;;;10.92;81.14;98471.73;219050;1281;24308;-73
2022/09/24 18:58:28;;;;;;;34.60;19.10;;;;;;;10.77;81.30;98469.66;218894;1284;23866;-74
2022/09/24 19:04:24;;;;;;;38.60;21.90;;;;;;;10.66;81.70;98477.70;217810;1287;24355;-73
2022/09/24 19:10:09;;;;;;;35.10;21.60;;;;;;;10.54;82.15;98484.38;217742;1287;24310;-74
2022/09/24 19:23:52;;;;;;;38.70;22.20;;;;;;;10.38;82.75;98476.25;219074;1281;22725;-74
2022/09/24 19:30:23;;;;;;;50.50;25.70;;;;;;;10.30;83.16;98473.71;219527;1279;25422;-73
2022/09/24 19:36:24;;;;;;;42.60;24.70;;;;;;;10.21;83.48;98473.49;219350;1281;25384;-74
2022/09/24 19:42:05;;;;;;;45.60;24.70;;;;;;;10.11;83.82;98471.30;219028;1284;24202;-73
2022/09/24 19:47:07;;;;;;;51.70;27.10;;;;;;;10.01;84.10;98468.73;218421;1284;22553;-74
2022/09/24 19:52:41;;;;;;;48.30;26.70;;;;;;;9.92;84.30;98465.88;220304;1281;24138;-73
2022/09/24 19:58:07;;;;;;;53.60;28.40;;;;;;;9.80;84.62;98471.52;219376;1281;22563;-74
2022/09/24 20:03:52;;;;;;;50.50;28.80;;;;;;;9.69;84.85;98472.14;219574;1281;22563;-73
2022/09/24 20:09:58;;;;;;;116.80;61.50;;;;;;;9.58;85.21;98469.20;219327;1281;24454;-73
2022/09/24 20:16:18;;;;;;;53.10;27.40;;;;;;;9.46;85.65;98463.75;219905;1277;22594;-75
2022/09/24 20:22:48;;;;;;;;;;;;;;;;;;;;;
2022/09/24 20:28:47;;;;;;;;;;;;;;;;;;;;;
2022/09/24 20:34:40;;;;;;;39.00;23.80;;;;;;;9.20;86.25;98472.46;219818;1276;22589;-72
2022/09/24 20:40:11;;;;;;;43.50;23.40;;;;;;;9.12;86.54;98470.82;220199;1276;22566;-75
2022/09/24 20:46:30;;;;;;;41.80;23.20;;;;;;;9.04;86.97;98472.51;221060;1276;22560;-74
2022/09/24 20:52:50;;;;;;;45.80;24.20;;;;;;;8.98;87.26;98475.09;219935;1277;22557;-74
2022/09/24 20:59:31;;;;;;;;;;;;;;;;;;;;;
2022/09/24 21:05:20;;;;;;;59.90;31.60;;;;;;;8.87;87.90;98458.76;219436;1281;24596;-73
2022/09/24 21:11:37;;;;;;;50.40;28.30;;;;;;;8.82;88.22;98466.40;219764;1279;22602;-73
2022/09/24 21:25:13;;;;;;;49.40;26.00;;;;;;;8.78;88.85;98456.35;219641;1279;22586;-74
2022/09/24 21:31:31;;;;;;;49.10;25.40;;;;;;;8.78;89.08;98462.86;219566;1279;24984;-74
2022/09/24 21:38:17;;;;;;;;;;;;;;;;;;;;;
2022/09/24 21:45:03;;;;;;;39.70;22.30;;;;;;;8.73;89.22;98465.75;219430;1277;22629;-73
2022/09/24 21:51:47;;;;;;;39.40;23.60;;;;;;;8.71;89.57;98463.41;219581;1281;23562;-73
2022/09/24 21:58:01;;;;;;;44.60;26.70;;;;;;;8.68;89.55;98459.77;218609;1282;22705;-73
2022/09/24 22:04:23;;;;;;;43.50;24.80;;;;;;;8.66;89.73;98455.81;219224;1281;22694;-74
2022/09/24 22:10:41;;;;;;;41.80;23.90;;;;;;;8.65;89.92;98455.45;220329;1281;25455;-73
2022/09/24 22:17:41;;;;;;;;;;;;;;;;;;;;;
2022/09/24 22:23:53;;;;;;;36.50;21.00;;;;;;;8.64;90.18;98454.67;219896;1276;22941;-73
2022/09/24 22:31:09;;;;;;;40.40;22.90;;;;;;;8.60;90.35;98453.96;219718;1276;22563;-74
2022/09/24 22:37:34;;;;;;;38.30;21.60;;;;;;;8.56;90.42;98455.77;220766;1277;25398;-74
2022/09/24 22:43:53;;;;;;;41.40;20.70;;;;;;;8.49;90.70;98455.58;220042;1276;24245;-74
2022/09/24 22:50:11;;;;;;;40.90;21.00;;;;;;;8.44;90.79;98450.90;219935;1276;24242;-74
2022/09/24 22:55:57;;;;;;;35.40;19.50;;;;;;;8.39;90.86;98446.95;220161;1276;22566;-73
2022/09/24 23:08:09;;;;;;;32.40;16.90;;;;;;;8.30;91.33;98452.63;221042;1274;22628;-73
2022/09/24 23:14:49;;;;;;;35.30;18.90;;;;;;;8.25;91.45;98452.98;219905;1276;22593;-73
2022/09/24 23:20:36;;;;;;;32.00;18.30;;;;;;;8.22;91.54;98452.16;220196;1276;22560;-74
2022/09/24 23:26:43;;;;;;;32.40;17.20;;;;;;;8.20;91.47;98445.83;219937;1278;25437;-73
2022/09/24 23:32:53;;;;;;;31.50;18.10;;;;;;;8.22;91.65;98452.38;220198;1276;24315;-73
2022/09/24 23:39:02;;;;;;;30.60;16.70;;;;;;;8.28;91.86;98445.64;220181;1276;26514;-74
2022/09/24 23:51:52;;;;;;;33.70;17.90;;;;;;;8.45;92.06;98440.70;219976;1278;22588;-73
